Latest Weather Observations for Bowen Airport AWS

IDQ60801

Issued at 1:02 pm EST Saturday 1 October 2016 (issued every 30 minutes, with the page automatically refreshed every 10 minutes)

About weather observations | Map of weather stations | Latest weather observations for QLD | Other Formats
Station Details ID: 033327 Name: BOWEN AIRPORT AWS Lat: -20.02 Lon: 148.21 Height: 5.9 m
Data from the previous 72 hours. | See also: Recent months at Bowen Airport AWS
Date/Time
EST
Temp
°C
App
Temp
°C
Dew
Point
°C
Rel
Hum
%
Delta-T
°C
Wind Press
QNH
hPa
Press
MSL
hPa
Rain since
9am
mm
Dir  Spd
km/h
Gust
km/h
Spd
kts
Gust
kts
01/01:00pm 28.6 30.2 19.2 56 6.1 NNE 9 15 5 8 1012.9 1012.8 0.0
01/12:30pm 29.5 31.2 20.1 57 6.2 NNE 11 20 6 11 1013.1 1013.0 0.0
01/12:00pm 29.0 30.8 19.6 57 6.1 NE 9 15 5 8 1013.4 1013.3 0.0
01/11:30am 28.7 30.4 21.0 63 5.1 E 13 19 7 10 1014.0 1013.9 0.0
01/11:00am 27.9 29.9 20.7 65 4.8 ESE 11 15 6 8 1014.4 1014.3 0.0
01/10:30am 27.6 30.2 21.2 68 4.3 E 9 13 5 7 1014.8 1014.7 0.0
01/10:00am 26.5 28.8 20.6 70 3.9 ESE 9 15 5 8 1015.0 1014.9 0.0
01/09:30am 26.3 29.2 21.1 73 3.4 ESE 7 9 4 5 1015.0 1014.9 0.0
01/09:00am 25.1 27.6 21.0 78 2.7 SE 9 11 5 6 1015.1 1015.0 0.0
01/08:30am 24.7 27.6 20.6 78 2.7 SE 6 7 3 4 1014.9 1014.8 0.0
01/08:00am 22.9 25.3 19.7 82 2.0 WSW 6 7 3 4 1014.9 1014.8 0.0
01/07:30am 21.4 22.9 19.0 86 1.5 SW 9 9 5 5 1014.5 1014.4 0.0
01/07:00am 19.4 19.7 17.0 86 1.5 SW 11 13 6 7 1014.1 1014.0 0.0
01/06:30am 18.0 18.4 16.2 89 1.1 WSW 9 11 5 6 1013.4 1013.3 0.0
01/06:00am 17.3 16.8 16.0 92 0.8 SW 13 17 7 9 1012.6 1012.5 0.0
01/05:30am 17.2 18.4 15.9 92 0.8 WSW 4 6 2 3 1012.3 1012.2 0.0
01/05:00am 17.3 18.0 16.0 92 0.8 WSW 7 9 4 5 1011.9 1011.8 0.0
01/04:30am 17.8 19.0 16.8 94 0.6 SSW 6 7 3 4 1011.2 1011.1 0.0
01/04:00am 18.5 20.0 17.7 95 0.5 SSW 6 7 3 4 1010.8 1010.7 0.0
01/03:30am 18.9 20.5 17.9 94 0.6 SSW 6 7 3 4 1010.6 1010.5 0.0
01/03:00am 19.0 20.4 17.8 93 0.7 SSW 7 9 4 5 1011.0 1010.9 0.0
01/02:30am 19.4 21.0 18.2 93 0.7 SSW 7 9 4 5 1011.1 1011.0 0.0
01/02:00am 20.6 23.1 19.9 96 0.4 SSW 6 7 3 4 1011.5 1011.4 0.0
01/01:30am 21.3 24.4 21.0 98 0.2 SSW 6 7 3 4 1011.6 1011.5 0.0
01/01:00am 20.9 23.7 20.4 97 0.3 WSW 6 6 3 3 1011.8 1011.7 0.0
01/12:30am 21.0 24.1 20.3 96 0.4 WSW 4 7 2 4 1011.9 1011.8 0.0
01/12:00am 21.8 26.0 21.0 95 0.5 CALM 0 0 0 0 1012.0 1011.9 0.0
 
Date/Time
EST
Temp
°C
App
Temp
°C
Dew
Point
°C
Rel
Hum
%
Delta-T
°C
Wind Press
QNH
hPa
Press
MSL
hPa
Rain since
9am
mm
Dir  Spd
km/h
Gust
km/h
Spd
kts
Gust
kts
30/11:30pm 22.4 26.9 21.6 95 0.5 CALM 0 0 0 0 1012.0 1011.9 0.0
30/11:00pm 22.2 26.5 21.2 94 0.7 CALM 0 0 0 0 1012.1 1012.0 0.0
30/10:30pm 23.0 27.0 22.0 94 0.7 N 4 6 2 3 1012.0 1011.9 0.0
30/10:00pm 23.5 27.2 22.3 93 0.8 NNE 6 7 3 4 1012.0 1011.9 0.0
30/09:30pm 22.7 26.4 21.5 93 0.8 ESE 4 11 2 6 1011.7 1011.6 0.0
30/09:00pm 23.6 27.8 20.9 85 1.8 CALM 0 0 0 0 1011.2 1011.1 0.0
30/08:30pm 24.2 28.1 21.1 83 2.0 SE 2 4 1 2 1010.9 1010.8 0.0
30/08:00pm 23.5 26.1 20.4 83 2.0 NNW 7 9 4 5 1010.5 1010.4 0.0
30/07:30pm 23.9 26.7 20.8 83 2.0 NNW 7 9 4 5 1010.2 1010.1 0.0
30/07:00pm 24.3 27.3 20.8 81 2.3 N 6 6 3 3 1009.8 1009.7 0.0
30/06:30pm 25.1 28.3 20.4 75 3.1 N 4 6 2 3 1009.4 1009.3 0.0
30/06:00pm 25.9 27.2 19.3 67 4.3 NNW 11 15 6 8 1009.1 1009.0 0.0
30/05:30pm 27.1 27.4 17.8 56 5.9 NNW 13 19 7 10 1008.8 1008.7 0.0
30/05:00pm 27.9 28.1 18.6 57 6.0 N 15 19 8 10 1008.5 1008.4 0.0
30/04:30pm 28.4 28.8 18.2 54 6.5 N 13 19 7 10 1008.3 1008.2 0.0
30/04:00pm 28.8 30.3 21.3 64 5.0 N 15 19 8 10 1008.0 1007.9 0.0
30/03:30pm 28.1 29.1 21.1 65 4.7 NNE 17 24 9 13 1007.9 1007.8 0.0
30/03:00pm 29.1 31.0 21.3 62 5.2 NNE 13 17 7 9 1008.0 1007.9 0.0
30/02:30pm 29.5 31.3 19.5 55 6.5 WNW 9 19 5 10 1008.3 1008.2 0.0
30/02:00pm 30.4 29.8 15.7 41 9.1 SSW 13 22 7 12 1008.4 1008.3 0.0
30/01:30pm 30.2 29.7 16.9 44 8.4 SSW 15 26 8 14 1008.7 1008.6 0.0
30/01:00pm 29.9 29.1 16.0 43 8.6 SW 15 22 8 12 1008.9 1008.8 0.0
30/12:30pm 29.0 28.8 17.5 49 7.3 SSW 15 20 8 11 1009.4 1009.3 0.0
30/12:00pm 28.1 28.2 19.1 58 5.8 SW 17 24 9 13 1010.0 1009.9 0.0
30/11:30am 27.8 26.9 19.1 59 5.6 SSW 22 32 12 17 1010.6 1010.5 0.0
30/11:00am 27.5 26.7 20.1 64 4.8 SSW 24 33 13 18 1010.8 1010.7 0.0
30/10:30am 27.1 26.4 21.8 73 3.5 SW 28 33 15 18 1011.1 1011.0 0.0
30/10:27am 27.1 27.2 21.8 73 3.5 SW 24 33 13 18 1011.0 1010.9 0.0
30/10:00am 27.4 30.7 22.6 75 3.3 SW 9 13 5 7 1010.9 1010.8 0.0
30/09:30am 26.8 29.1 22.0 75 3.2 SW 13 19 7 10 1010.9 1010.8 0.0
30/09:00am 25.6 29.2 22.3 82 2.2 WSW 7 11 4 6 1011.0 1010.9 69.4
30/08:30am 24.8 28.0 22.3 86 1.7 WSW 9 13 5 7 1010.7 1010.6 69.4
30/08:00am 23.5 26.8 21.8 90 1.1 W 7 15 4 8 1010.7 1010.6 69.4
30/07:30am 23.3 24.9 21.4 89 1.3 W 15 19 8 10 1010.4 1010.3 68.2
30/07:00am 22.6 23.3 21.6 94 0.7 WSW 20 28 11 15 1009.8 1009.7 68.2
30/06:30am 24.7 27.5 23.7 94 0.7 WNW 15 20 8 11 1009.5 1009.4 67.6
30/06:00am 24.7 27.0 23.5 93 0.8 NW 17 22 9 12 1008.8 1008.7 67.2
30/05:30am 24.6 26.8 23.2 92 0.9 NNW 17 26 9 14 1008.1 1008.0 67.2
30/05:00am 24.5 26.7 23.3 93 0.8 NNW 17 24 9 13 1007.7 1007.6 67.2
30/04:30am 24.4 27.1 23.4 94 0.7 NW 15 22 8 12 1008.0 1007.9 67.2
30/04:00am 23.7 27.3 23.0 96 0.5 SW 9 30 5 16 1007.9 1007.8 67.0
30/03:30am 24.0 26.3 23.5 97 0.3 N 17 24 9 13 1008.1 1008.0 46.4
30/03:00am 24.2 27.6 23.3 95 0.6 N 11 19 6 10 1008.1 1008.0 23.4
30/02:30am 24.6 27.0 23.0 91 1.1 NNW 15 24 8 13 1008.4 1008.3 8.8
30/02:00am 24.6 27.8 23.0 91 1.1 N 11 17 6 9 1008.9 1008.8 8.8
30/01:30am 24.5 28.0 22.9 91 1.1 N 9 13 5 7 1009.1 1009.0 8.8
30/01:00am 24.3 28.3 23.1 93 0.8 N 7 11 4 6 1009.5 1009.4 8.8
30/12:30am 24.0 27.9 23.0 94 0.7 N 7 11 4 6 1009.7 1009.6 8.8
30/12:00am 23.6 27.2 22.4 93 0.8 N 7 9 4 5 1010.1 1010.0 8.8
 
Date/Time
EST
Temp
°C
App
Temp
°C
Dew
Point
°C
Rel
Hum
%
Delta-T
°C
Wind Press
QNH
hPa
Press
MSL
hPa
Rain since
9am
mm
Dir  Spd
km/h
Gust
km/h
Spd
kts
Gust
kts
29/11:30pm 22.9 26.0 21.4 91 1.0 N 7 13 4 7 1010.0 1009.9 8.8
29/11:00pm 22.8 24.5 21.6 93 0.8 N 15 26 8 14 1010.1 1010.0 8.8
29/10:30pm 23.0 24.1 22.0 94 0.7 N 19 28 10 15 1010.1 1010.0 8.8
29/10:00pm 23.8 27.8 22.8 94 0.7 NNW 6 7 3 4 1011.1 1011.0 7.2
29/09:30pm 24.0 27.7 22.6 92 0.9 NNW 7 11 4 6 1011.0 1010.9 3.8
29/09:00pm 23.8 27.3 22.2 91 1.1 NNW 7 13 4 7 1010.2 1010.1 3.0
29/08:30pm 23.7 26.5 22.3 92 0.9 N 11 15 6 8 1009.4 1009.3 3.0
29/08:00pm 23.6 27.2 22.4 93 0.8 N 7 9 4 5 1009.7 1009.6 2.6
29/07:30pm 23.7 26.5 22.3 92 0.9 N 11 15 6 8 1009.2 1009.1 2.0
29/07:00pm 23.9 26.1 21.8 88 1.4 N 13 17 7 9 1009.1 1009.0 0.8
29/06:30pm 25.2 27.0 21.1 78 2.7 N 13 17 7 9 1008.9 1008.8 0.0
29/06:00pm 25.5 26.7 20.7 75 3.2 N 15 22 8 12 1008.4 1008.3 0.0
29/05:30pm 25.6 26.4 20.6 74 3.3 N 17 24 9 13 1007.9 1007.8 0.0
29/05:00pm 25.6 26.1 21.1 76 3.0 N 20 28 11 15 1007.5 1007.4 0.0
29/04:30pm 26.0 26.5 20.8 73 3.4 N 19 28 10 15 1007.1 1007.0 0.0
29/04:00pm 25.9 26.2 20.7 73 3.4 N 20 33 11 18 1006.7 1006.6 0.0
29/03:30pm 26.2 26.5 20.8 72 3.6 N 20 28 11 15 1007.0 1006.9 0.0
29/03:00pm 25.8 26.2 20.6 73 3.4 N 19 26 10 14 1007.4 1007.3 0.0
29/02:30pm 25.7 26.4 20.5 73 3.4 N 17 26 9 14 1007.7 1007.6 0.0
29/02:00pm 25.8 26.5 20.4 72 3.5 N 17 28 9 15 1008.1 1008.0 0.0
29/01:30pm 26.1 26.1 20.2 70 3.8 NNW 20 28 11 15 1008.7 1008.6 0.0
29/01:00pm 26.1 26.2 20.0 69 4.0 NNW 19 30 10 16 1009.4 1009.3 0.0
29/12:30pm 26.4 26.5 20.0 68 4.2 N 19 28 10 15 1009.8 1009.7 0.0
29/12:00pm 25.9 26.3 19.8 69 4.0 N 17 28 9 15 1010.1 1010.0 0.0
29/11:30am 26.5 26.2 19.6 66 4.5 NNW 20 26 11 14 1010.7 1010.6 0.0
29/11:00am 26.8 27.1 19.7 65 4.6 NNW 17 26 9 14 1010.9 1010.8 0.0
29/10:30am 27.3 27.4 19.9 64 4.8 N 19 30 10 16 1010.9 1010.8 0.0
29/10:00am 26.8 27.1 19.7 65 4.6 NNW 17 30 9 16 1011.2 1011.1 0.0
29/09:30am 27.0 27.3 20.3 66 4.4 N 19 28 10 15 1011.4 1011.3 0.0
29/09:00am 26.4 27.0 20.3 69 4.0 N 17 22 9 12 1011.3 1011.2 0.2
29/08:30am 25.4 27.7 20.6 75 3.1 NNE 9 17 5 9 1011.7 1011.6 0.2
29/08:00am 23.7 26.1 20.0 80 2.4 SE 7 9 4 5 1012.1 1012.0 0.2
29/07:30am 23.4 26.0 20.0 81 2.2 SSE 6 6 3 3 1011.9 1011.8 0.2
29/07:00am 22.8 26.1 20.0 84 1.8 SSE 2 4 1 2 1011.3 1011.2 0.2
29/06:30am 21.9 24.2 19.5 86 1.5 S 6 7 3 4 1011.1 1011.0 0.2
29/06:00am 21.2 22.3 18.9 87 1.4 WSW 11 17 6 9 1011.0 1010.9 0.2
29/05:30am 22.4 24.8 20.1 87 1.5 SSE 7 9 4 5 1010.7 1010.6 0.2
29/05:00am 22.8 25.8 19.2 80 2.3 NNW 2 6 1 3 1010.5 1010.4 0.0
29/04:30am 23.0 24.0 18.7 77 2.7 E 11 15 6 8 1010.2 1010.1 0.0
29/04:00am 22.9 23.2 18.0 74 3.1 SE 13 19 7 10 1010.3 1010.2 0.0
29/03:30am 22.7 24.0 17.2 71 3.4 S 6 9 3 5 1010.6 1010.5 0.0
29/03:00am 22.8 23.7 17.5 72 3.3 SSE 9 13 5 7 1010.9 1010.8 0.0
29/02:30am 24.1 25.0 18.3 70 3.7 ENE 11 15 6 8 1010.9 1010.8 0.0
29/02:00am 24.1 24.6 18.3 70 3.7 NE 13 17 7 9 1011.1 1011.0 0.0
29/01:30am 24.0 24.8 18.2 70 3.6 NE 11 15 6 8 1011.5 1011.4 0.0
29/01:00am 23.8 24.9 18.0 70 3.6 ENE 9 13 5 7 1011.6 1011.5 0.0
29/12:30am 23.5 23.8 17.9 71 3.5 ENE 13 19 7 10 1011.5 1011.4 0.0
29/12:00am 23.6 24.3 18.0 71 3.5 ENE 11 17 6 9 1011.8 1011.7 0.0
 
Date/Time
EST
Temp
°C
App
Temp
°C
Dew
Point
°C
Rel
Hum
%
Delta-T
°C
Wind Press
QNH
hPa
Press
MSL
hPa
Rain since
9am
mm
Dir  Spd
km/h
Gust
km/h
Spd
kts
Gust
kts
28/11:30pm 23.7 23.7 18.1 71 3.5 ENE 15 22 8 12 1012.0 1011.9 0.0
28/11:00pm 23.6 24.1 18.3 72 3.3 ENE 13 19 7 10 1012.2 1012.1 0.0
28/10:30pm 23.6 24.1 18.3 72 3.3 ENE 13 20 7 11 1012.3 1012.2 0.0
28/10:00pm 23.8 23.7 18.7 73 3.2 ENE 17 24 9 13 1012.5 1012.4 0.0
28/09:30pm 23.7 23.3 18.1 71 3.5 ENE 17 22 9 12 1012.3 1012.2 0.0
28/09:00pm 23.8 24.1 17.8 69 3.7 ENE 13 17 7 9 1012.4 1012.3 0.0
28/08:30pm 23.8 23.8 17.3 67 4.0 ENE 13 19 7 10 1012.6 1012.5 0.0
28/08:00pm 24.0 23.5 17.0 65 4.3 ENE 15 19 8 10 1012.5 1012.4 0.0
28/07:30pm 24.0 23.5 16.8 64 4.4 ENE 15 19 8 10 1012.3 1012.2 0.0
28/07:00pm 24.2 23.1 17.4 65 4.2 ENE 19 28 10 15 1011.9 1011.8 0.0
28/06:30pm 24.1 23.9 17.6 67 4.0 ENE 15 22 8 12 1011.7 1011.6 0.0
28/06:00pm 24.5 23.4 17.7 66 4.3 ENE 20 30 11 16 1011.6 1011.5 0.0
28/05:30pm 25.2 24.4 17.9 64 4.6 ENE 19 26 10 14 1011.2 1011.1 0.0
28/05:00pm 25.6 24.5 17.8 62 4.9 ENE 20 28 11 15 1011.0 1010.9 0.0
28/04:30pm 26.3 24.8 17.6 58 5.5 ENE 22 28 12 15 1010.7 1010.6 0.0
28/04:00pm 26.6 24.4 15.9 51 6.6 ENE 22 28 12 15 1010.5 1010.4 0.0
28/03:30pm 27.3 26.0 17.2 54 6.3 ENE 20 30 11 16 1010.5 1010.4 0.0
28/03:00pm 27.5 25.9 16.5 51 6.8 NE 20 28 11 15 1010.5 1010.4 0.0
28/02:30pm 28.1 26.8 16.7 50 7.1 NE 19 28 10 15 1011.1 1011.0 0.0
28/02:00pm 28.1 26.1 16.4 49 7.3 ENE 22 28 12 15 1011.4 1011.3 0.0
28/01:30pm 28.0 25.7 14.6 44 8.1 NE 20 30 11 16 1012.0 1011.9 0.0

Other Formats:

Comma delimited format used in spreadsheet applications
http://www.bom.gov.au/fwo/IDQ60801/IDQ60801.94383.axf

JavaScript Object Notation format (JSON) in row-major order
http://www.bom.gov.au/fwo/IDQ60801/IDQ60801.94383.json